Time;durP1;ratioP1;P1;durP2;ratioP2;P2;SDS_P1;SDS_P2;PMS_P1;PMS_P2;Temp;Humidity;BMP_temperature;BMP_pressure;BME280_temperature;BME280_humidity;BME280_pressure;Samples;Min_cycle;Max_cycle;Signal;HPM_P1;HPM_P2
2023/11/24 00:01:33;;;;;;;6.10;5.22;;;;;;;;;;4980104;28;20053;-79
2023/11/24 00:03:59;;;;;;;4.88;4.47;;;;;;;;;;4960138;28;20042;-79
2023/11/24 00:06:25;;;;;;;7.90;6.43;;;;;;;;;;4981793;28;20042;-80
2023/11/24 00:08:51;;;;;;;5.65;5.25;;;;;;;;;;4977709;28;20038;-79
2023/11/24 00:11:17;;;;;;;10.43;6.07;;;;;;;;;;4950832;29;20417;-77
2023/11/24 00:13:43;;;;;;;5.15;4.75;;;;;;;;;;4982378;28;20038;-78
2023/11/24 00:16:09;;;;;;;5.32;4.88;;;;;;;;;;4950400;28;20158;-77
2023/11/24 00:18:40;;;;;;;2.75;2.65;;;;;;;;;;4970394;28;20054;-76
2023/11/24 00:21:06;;;;;;;6.85;6.20;;;;;;;;;;4965386;28;20038;-77
2023/11/24 00:23:35;;;;;;;5.47;4.90;;;;;;;;;;4978761;28;20520;-77
2023/11/24 00:26:08;;;;;;;5.20;4.80;;;;;;;;;;4954379;28;20051;-78
2023/11/24 00:28:39;;;;;;;6.05;4.75;;;;;;;;;;4993956;28;20054;-77
2023/11/24 00:31:08;;;;;;;8.05;6.63;;;;;;;;;;4973982;28;20066;-77
2023/11/24 00:33:37;;;;;;;10.38;5.38;;;;;;;;;;4976378;28;20062;-78
2023/11/24 00:36:06;;;;;;;5.53;5.05;;;;;;;;;;4975956;28;20064;-78
2023/11/24 00:38:32;;;;;;;5.90;5.40;;;;;;;;;;4981171;28;20137;-78
2023/11/24 00:41:00;;;;;;;5.47;4.97;;;;;;;;;;4995649;28;20153;-77
2023/11/24 00:43:26;;;;;;;5.20;4.72;;;;;;;;;;4982435;28;20039;-79
2023/11/24 00:45:53;;;;;;;4.28;3.97;;;;;;;;;;4935178;28;20050;-78
2023/11/24 00:48:21;;;;;;;7.15;6.45;;;;;;;;;;4986403;28;20079;-79
2023/11/24 00:50:47;;;;;;;7.75;5.60;;;;;;;;;;4974714;28;20055;-78
2023/11/24 00:53:13;;;;;;;11.52;4.82;;;;;;;;;;4982780;28;20547;-79
2023/11/24 00:55:39;;;;;;;9.40;6.47;;;;;;;;;;4995358;28;20042;-80
2023/11/24 00:58:06;;;;;;;4.68;4.30;;;;;;;;;;4997953;28;20300;-78
2023/11/24 01:00:32;;;;;;;7.07;4.32;;;;;;;;;;5002487;28;20051;-78
2023/11/24 01:02:58;;;;;;;9.13;8.30;;;;;;;;;;4977913;28;20094;-78
2023/11/24 01:05:24;;;;;;;8.95;8.05;;;;;;;;;;4993725;28;20046;-77
2023/11/24 01:07:50;;;;;;;7.93;6.90;;;;;;;;;;4960149;28;20042;-80
2023/11/24 01:10:16;;;;;;;5.63;5.13;;;;;;;;;;4961926;28;20046;-79
2023/11/24 01:12:44;;;;;;;9.35;7.70;;;;;;;;;;4956331;28;20057;-81
2023/11/24 01:15:10;;;;;;;6.50;5.97;;;;;;;;;;4967069;28;20043;-79
2023/11/24 01:17:36;;;;;;;6.82;6.32;;;;;;;;;;4965593;28;20101;-78
2023/11/24 01:20:03;;;;;;;6.57;4.50;;;;;;;;;;4961982;28;20042;-77
2023/11/24 01:22:30;;;;;;;9.45;7.70;;;;;;;;;;4961622;28;20066;-79
2023/11/24 01:24:56;;;;;;;6.28;5.65;;;;;;;;;;4977048;28;20039;-79
2023/11/24 01:27:22;;;;;;;5.00;3.65;;;;;;;;;;4960939;28;20501;-78
2023/11/24 01:29:49;;;;;;;3.47;3.17;;;;;;;;;;4975718;28;20050;-77
2023/11/24 01:32:15;;;;;;;5.20;4.55;;;;;;;;;;4925026;28;20125;-76
2023/11/24 01:34:41;;;;;;;9.55;7.80;;;;;;;;;;4940682;28;20045;-79
2023/11/24 01:37:07;;;;;;;6.18;5.60;;;;;;;;;;4956638;28;20046;-77
2023/11/24 01:39:34;;;;;;;5.10;4.70;;;;;;;;;;4974456;28;20049;-78
2023/11/24 01:42:00;;;;;;;4.43;4.05;;;;;;;;;;4924624;28;20141;-77
2023/11/24 01:44:27;;;;;;;5.10;4.65;;;;;;;;;;4970738;28;20039;-77
2023/11/24 01:46:54;;;;;;;10.10;9.10;;;;;;;;;;4976442;28;20046;-78
2023/11/24 01:49:20;;;;;;;6.57;5.97;;;;;;;;;;4975945;28;20054;-76
2023/11/24 01:51:48;;;;;;;11.10;9.98;;;;;;;;;;4974844;28;20046;-77
2023/11/24 01:54:14;;;;;;;9.90;6.85;;;;;;;;;;4992933;28;20058;-76
2023/11/24 01:56:41;;;;;;;6.93;5.82;;;;;;;;;;4963617;28;20061;-78
2023/11/24 01:59:07;;;;;;;6.22;5.70;;;;;;;;;;4981267;28;20030;-77
2023/11/24 02:01:34;;;;;;;6.97;6.28;;;;;;;;;;4999407;28;20073;-77
2023/11/24 02:04:00;;;;;;;13.20;8.27;;;;;;;;;;4991885;28;20042;-78
2023/11/24 02:06:27;;;;;;;6.95;6.32;;;;;;;;;;5009984;28;20105;-77
2023/11/24 02:08:53;;;;;;;6.07;4.78;;;;;;;;;;4976538;28;20535;-78
2023/11/24 02:11:19;;;;;;;6.35;5.85;;;;;;;;;;4991763;28;20046;-77
2023/11/24 02:13:49;;;;;;;7.75;5.80;;;;;;;;;;5007452;28;20046;-79
2023/11/24 02:16:15;;;;;;;5.22;4.82;;;;;;;;;;4989957;28;20058;-78
2023/11/24 02:18:41;;;;;;;18.42;6.70;;;;;;;;;;4988007;28;20066;-79
2023/11/24 02:21:27;;;;;;;10.00;7.82;;;;;;;;;;4958268;28;20045;-79
2023/11/24 02:23:53;;;;;;;14.75;5.65;;;;;;;;;;4964493;28;20105;-79
2023/11/24 02:26:19;;;;;;;6.18;5.72;;;;;;;;;;4980954;28;20070;-78
2023/11/24 02:28:46;;;;;;;8.93;7.97;;;;;;;;;;4963782;28;20115;-77
2023/11/24 02:31:12;;;;;;;11.77;5.30;;;;;;;;;;4964208;28;20050;-77
2023/11/24 02:33:40;;;;;;;8.70;7.38;;;;;;;;;;4960814;28;20038;-77
2023/11/24 02:36:16;;;;;;;7.20;6.50;;;;;;;;;;4950195;28;20054;-77
2023/11/24 02:38:46;;;;;;;12.02;7.60;;;;;;;;;;4930993;28;20061;-79
2023/11/24 02:41:14;;;;;;;8.25;6.25;;;;;;;;;;4964267;28;20047;-78
2023/11/24 02:43:39;;;;;;;6.90;6.30;;;;;;;;;;4965098;28;20043;-80
2023/11/24 02:46:06;;;;;;;4.72;4.25;;;;;;;;;;5000308;28;20093;-78
2023/11/24 02:48:31;;;;;;;5.53;4.68;;;;;;;;;;4999782;28;20057;-79
2023/11/24 02:50:57;;;;;;;5.65;5.03;;;;;;;;;;4982616;28;20603;-78
2023/11/24 02:53:24;;;;;;;10.82;9.32;;;;;;;;;;4996296;28;20128;-80
2023/11/24 02:55:50;;;;;;;7.07;6.43;;;;;;;;;;4995005;28;20058;-79
2023/11/24 02:58:16;;;;;;;11.77;10.55;;;;;;;;;;4980846;28;20521;-78
2023/11/24 03:00:43;;;;;;;9.48;8.27;;;;;;;;;;5001458;28;20100;-80
2023/11/24 03:03:09;;;;;;;12.82;6.43;;;;;;;;;;5004081;28;20042;-80
2023/11/24 03:05:35;;;;;;;7.68;6.90;;;;;;;;;;4988874;28;20528;-79
2023/11/24 03:08:03;;;;;;;7.15;4.43;;;;;;;;;;5004487;28;20034;-80
2023/11/24 03:10:29;;;;;;;6.68;6.00;;;;;;;;;;5001856;28;20039;-80
2023/11/24 03:12:55;;;;;;;5.43;4.97;;;;;;;;;;4959793;28;20034;-79
2023/11/24 03:15:21;;;;;;;9.18;8.35;;;;;;;;;;4999866;28;20053;-79
2023/11/24 03:17:47;;;;;;;5.45;5.00;;;;;;;;;;4968276;28;20058;-79
2023/11/24 03:20:13;;;;;;;9.57;7.10;;;;;;;;;;4982437;28;20049;-80
2023/11/24 03:22:39;;;;;;;10.70;8.52;;;;;;;;;;4971623;28;20041;-78
2023/11/24 03:25:07;;;;;;;8.57;7.72;;;;;;;;;;4945552;29;20039;-78
2023/11/24 03:27:34;;;;;;;7.50;6.90;;;;;;;;;;4965214;28;20106;-79
2023/11/24 03:30:01;;;;;;;5.40;4.97;;;;;;;;;;4999160;28;20138;-77
2023/11/24 03:32:30;;;;;;;7.43;6.93;;;;;;;;;;4951939;28;20034;-78
2023/11/24 03:34:56;;;;;;;7.80;7.10;;;;;;;;;;4966422;28;20046;-76
2023/11/24 03:37:24;;;;;;;8.77;7.10;;;;;;;;;;4928395;28;20043;-77
2023/11/24 03:39:51;;;;;;;8.73;7.93;;;;;;;;;;4963002;28;20509;-77
2023/11/24 03:42:19;;;;;;;10.55;9.50;;;;;;;;;;4941366;28;20039;-77
2023/11/24 03:44:45;;;;;;;8.57;7.43;;;;;;;;;;4966929;28;20575;-76
2023/11/24 03:47:11;;;;;;;11.13;6.13;;;;;;;;;;4976695;28;20073;-76
2023/11/24 03:49:37;;;;;;;5.57;5.05;;;;;;;;;;4960565;28;20070;-76
2023/11/24 03:52:04;;;;;;;6.35;5.88;;;;;;;;;;4975977;28;20042;-74
2023/11/24 03:54:30;;;;;;;7.00;6.40;;;;;;;;;;4994491;28;20092;-78
2023/11/24 03:56:56;;;;;;;17.30;6.70;;;;;;;;;;4993520;28;20141;-78
2023/11/24 03:59:22;;;;;;;6.05;5.47;;;;;;;;;;4994939;28;20050;-77
2023/11/24 04:01:50;;;;;;;6.38;5.78;;;;;;;;;;4977270;28;20424;-79
2023/11/24 04:04:16;;;;;;;7.18;6.55;;;;;;;;;;4993426;28;20089;-74
2023/11/24 04:06:42;;;;;;;8.88;7.97;;;;;;;;;;4995774;28;20038;-77
2023/11/24 04:09:10;;;;;;;5.80;5.30;;;;;;;;;;4965315;28;20101;-76
2023/11/24 04:11:36;;;;;;;9.60;7.97;;;;;;;;;;4982179;28;20038;-76
2023/11/24 04:14:02;;;;;;;11.88;10.60;;;;;;;;;;5016718;28;20108;-79
2023/11/24 04:16:29;;;;;;;7.18;6.55;;;;;;;;;;5014045;28;20049;-81
2023/11/24 04:18:55;;;;;;;9.95;7.85;;;;;;;;;;4996547;28;20464;-80
2023/11/24 04:21:22;;;;;;;11.35;5.13;;;;;;;;;;4995229;28;20056;-80
2023/11/24 04:23:51;;;;;;;7.95;7.15;;;;;;;;;;4999148;28;20077;-81
2023/11/24 04:26:17;;;;;;;8.73;7.35;;;;;;;;;;4998555;28;20061;-79
2023/11/24 04:28:43;;;;;;;8.15;7.18;;;;;;;;;;4989360;28;20030;-81
2023/11/24 04:31:09;;;;;;;9.60;8.68;;;;;;;;;;4959938;28;20043;-80
2023/11/24 04:33:35;;;;;;;11.52;7.22;;;;;;;;;;4990501;28;20047;-81
2023/11/24 04:36:01;;;;;;;8.48;6.45;;;;;;;;;;4974415;28;20046;-82
2023/11/24 04:38:27;;;;;;;9.70;8.43;;;;;;;;;;4973682;28;20106;-81
2023/11/24 04:40:54;;;;;;;10.18;7.43;;;;;;;;;;4991507;28;20058;-82
2023/11/24 04:43:24;;;;;;;8.27;7.47;;;;;;;;;;4992203;28;20039;-81
2023/11/24 04:45:50;;;;;;;9.20;5.93;;;;;;;;;;4996534;28;20062;-81
2023/11/24 04:48:16;;;;;;;11.45;9.18;;;;;;;;;;5015837;28;20046;-80
2023/11/24 04:50:42;;;;;;;8.65;7.85;;;;;;;;;;4998622;28;20046;-82
2023/11/24 04:53:08;;;;;;;5.55;5.03;;;;;;;;;;5011924;28;20492;-82
2023/11/24 04:55:34;;;;;;;6.82;5.93;;;;;;;;;;4997795;28;20030;-81
2023/11/24 04:58:00;;;;;;;8.90;7.43;;;;;;;;;;4998165;28;20042;-79
2023/11/24 05:00:28;;;;;;;6.30;5.80;;;;;;;;;;5011415;28;20046;-81
2023/11/24 05:02:54;;;;;;;8.15;7.45;;;;;;;;;;5011690;28;20078;-81
2023/11/24 05:05:20;;;;;;;8.80;7.90;;;;;;;;;;4980381;28;20046;-81
2023/11/24 05:07:46;;;;;;;9.20;6.45;;;;;;;;;;4998359;28;20052;-83
2023/11/24 05:10:12;;;;;;;8.10;6.85;;;;;;;;;;4994186;28;20056;-82
2023/11/24 05:12:38;;;;;;;7.50;6.28;;;;;;;;;;4995417;28;20051;-79
2023/11/24 05:15:07;;;;;;;8.60;6.53;;;;;;;;;;4997068;28;20066;-81
2023/11/24 05:17:38;;;;;;;8.40;7.57;;;;;;;;;;4980190;28;20270;-82
2023/11/24 05:20:06;;;;;;;10.52;8.18;;;;;;;;;;4994825;28;20147;-80
2023/11/24 05:22:32;;;;;;;15.23;9.98;;;;;;;;;;4993948;28;20031;-81
2023/11/24 05:24:58;;;;;;;8.18;7.40;;;;;;;;;;5009481;28;20107;-79
2023/11/24 05:27:25;;;;;;;8.73;7.90;;;;;;;;;;4970361;29;20043;-80
2023/11/24 05:29:51;;;;;;;12.48;9.43;;;;;;;;;;4994253;28;20049;-81
2023/11/24 05:32:17;;;;;;;14.35;11.57;;;;;;;;;;4985537;28;20139;-76
2023/11/24 05:34:43;;;;;;;11.18;10.07;;;;;;;;;;4955994;28;20058;-76
2023/11/24 05:37:09;;;;;;;13.82;10.15;;;;;;;;;;4983384;28;20408;-77
2023/11/24 05:39:37;;;;;;;5.13;4.72;;;;;;;;;;4976438;28;20129;-76
2023/11/24 05:42:06;;;;;;;8.27;7.50;;;;;;;;;;4957336;28;20053;-76
2023/11/24 05:44:32;;;;;;;15.93;10.38;;;;;;;;;;4956514;28;20046;-77
2023/11/24 05:46:58;;;;;;;7.90;6.03;;;;;;;;;;4971600;28;20075;-79
2023/11/24 05:49:24;;;;;;;15.05;9.52;;;;;;;;;;4970587;28;20054;-76
2023/11/24 05:51:51;;;;;;;14.32;10.30;;;;;;;;;;4970722;28;20034;-76
2023/11/24 05:54:17;;;;;;;17.40;11.35;;;;;;;;;;4950160;28;20149;-74
2023/11/24 05:56:44;;;;;;;22.45;15.65;;;;;;;;;;4972586;28;20146;-76
2023/11/24 05:59:10;;;;;;;27.63;17.38;;;;;;;;;;4972858;28;20039;-74
2023/11/24 06:01:36;;;;;;;16.08;11.32;;;;;;;;;;4977715;28;20046;-72
2023/11/24 06:04:03;;;;;;;10.52;9.38;;;;;;;;;;4991573;28;20035;-74
2023/11/24 06:06:29;;;;;;;19.23;12.63;;;;;;;;;;4961576;28;20042;-75
2023/11/24 06:08:55;;;;;;;31.90;22.67;;;;;;;;;;4971600;28;20042;-74
2023/11/24 06:11:21;;;;;;;28.02;20.13;;;;;;;;;;4971390;28;20141;-73
2023/11/24 06:13:47;;;;;;;17.40;12.60;;;;;;;;;;4971952;28;20405;-74
2023/11/24 06:16:13;;;;;;;13.98;10.13;;;;;;;;;;4971909;28;20055;-74
2023/11/24 06:18:40;;;;;;;7.97;7.18;;;;;;;;;;4968373;28;20039;-75
2023/11/24 06:21:06;;;;;;;26.42;18.17;;;;;;;;;;4971902;28;20511;-73
2023/11/24 06:23:32;;;;;;;8.90;7.25;;;;;;;;;;4971093;28;20042;-73
2023/11/24 06:25:58;;;;;;;13.02;8.63;;;;;;;;;;4963213;28;20050;-74
2023/11/24 06:28:24;;;;;;;12.32;9.85;;;;;;;;;;4955417;28;20057;-75
2023/11/24 06:30:51;;;;;;;13.25;9.13;;;;;;;;;;4988091;28;20133;-78
2023/11/24 06:33:17;;;;;;;13.82;9.68;;;;;;;;;;4974896;28;20121;-76
2023/11/24 06:35:43;;;;;;;17.08;12.27;;;;;;;;;;4962804;28;20069;-77
2023/11/24 06:38:08;;;;;;;18.45;11.57;;;;;;;;;;4960542;28;20509;-75
2023/11/24 06:40:35;;;;;;;17.00;10.57;;;;;;;;;;4974670;28;20042;-78
2023/11/24 06:43:01;;;;;;;20.17;12.13;;;;;;;;;;4982688;28;20101;-79
2023/11/24 06:45:26;;;;;;;26.63;16.05;;;;;;;;;;4968735;28;20454;-77
2023/11/24 06:47:52;;;;;;;39.83;20.02;;;;;;;;;;4981406;28;20519;-78
2023/11/24 06:50:18;;;;;;;23.13;13.18;;;;;;;;;;4961287;28;20031;-78
2023/11/24 06:52:44;;;;;;;20.23;13.20;;;;;;;;;;4966726;28;20426;-78
2023/11/24 06:55:11;;;;;;;24.95;14.00;;;;;;;;;;4963297;28;20369;-77
2023/11/24 06:57:38;;;;;;;24.02;14.45;;;;;;;;;;4982931;28;20047;-76
2023/11/24 07:00:05;;;;;;;26.95;16.02;;;;;;;;;;4979372;28;20122;-77
2023/11/24 07:02:31;;;;;;;13.10;10.63;;;;;;;;;;4983107;28;20567;-76
2023/11/24 07:04:57;;;;;;;16.75;11.05;;;;;;;;;;4978608;28;20046;-73
2023/11/24 07:07:23;;;;;;;15.93;9.85;;;;;;;;;;4991731;28;20133;-76
2023/11/24 07:09:49;;;;;;;22.38;11.95;;;;;;;;;;4972481;28;20050;-76
2023/11/24 07:12:17;;;;;;;43.40;23.48;;;;;;;;;;4982444;28;20041;-76
2023/11/24 07:14:44;;;;;;;19.15;11.15;;;;;;;;;;4972271;28;20046;-76
2023/11/24 07:17:12;;;;;;;33.92;18.25;;;;;;;;;;4961261;28;20508;-77
2023/11/24 07:19:38;;;;;;;20.55;11.23;;;;;;;;;;4976801;28;20035;-76
2023/11/24 07:22:04;;;;;;;27.83;14.77;;;;;;;;;;4963165;28;20044;-76
2023/11/24 07:24:30;;;;;;;30.05;13.43;;;;;;;;;;4973745;28;20051;-77
2023/11/24 07:26:56;;;;;;;31.23;15.35;;;;;;;;;;4964594;28;20412;-75
2023/11/24 07:29:22;;;;;;;39.15;24.23;;;;;;;;;;4961612;28;20058;-75
2023/11/24 07:31:48;;;;;;;20.15;12.77;;;;;;;;;;4975865;28;20042;-75
2023/11/24 07:34:15;;;;;;;25.02;14.70;;;;;;;;;;4969884;28;20054;-73
2023/11/24 07:36:41;;;;;;;24.23;14.02;;;;;;;;;;4985123;28;20515;-74
2023/11/24 07:39:10;;;;;;;20.00;11.93;;;;;;;;;;4960198;28;20101;-74
2023/11/24 07:41:36;;;;;;;26.45;15.15;;;;;;;;;;4947008;28;20044;-73
2023/11/24 07:44:02;;;;;;;24.25;14.27;;;;;;;;;;4957369;28;20038;-75
2023/11/24 07:46:28;;;;;;;31.20;11.05;;;;;;;;;;4979726;28;20049;-74
2023/11/24 07:48:54;;;;;;;23.55;13.77;;;;;;;;;;4977797;28;20408;-76
2023/11/24 07:51:21;;;;;;;12.32;9.05;;;;;;;;;;4968490;28;20046;-76
2023/11/24 07:53:47;;;;;;;25.55;16.73;;;;;;;;;;4968299;28;20539;-76
2023/11/24 07:56:13;;;;;;;11.50;9.07;;;;;;;;;;4974905;28;20197;-76
2023/11/24 07:58:39;;;;;;;13.02;8.93;;;;;;;;;;4951766;28;20110;-75
2023/11/24 08:01:06;;;;;;;18.02;10.65;;;;;;;;;;4954150;28;20057;-76
2023/11/24 08:03:32;;;;;;;15.15;10.02;;;;;;;;;;4958287;28;20144;-77
2023/11/24 08:06:06;;;;;;;19.33;11.52;;;;;;;;;;4986914;28;20570;-76
2023/11/24 08:08:32;;;;;;;14.98;9.07;;;;;;;;;;4954698;28;20035;-76
2023/11/24 08:10:58;;;;;;;11.68;9.50;;;;;;;;;;4948166;28;20138;-77
2023/11/24 08:13:24;;;;;;;17.83;12.30;;;;;;;;;;4974038;28;20410;-77
2023/11/24 08:15:50;;;;;;;16.90;11.30;;;;;;;;;;4963616;28;20050;-78
2023/11/24 08:18:16;;;;;;;15.45;10.90;;;;;;;;;;4960941;28;20038;-76
2023/11/24 08:20:42;;;;;;;30.52;17.17;;;;;;;;;;4959214;28;20464;-77
2023/11/24 08:23:10;;;;;;;11.35;10.18;;;;;;;;;;4941954;28;20035;-77
2023/11/24 08:25:36;;;;;;;16.02;10.60;;;;;;;;;;4941460;28;20050;-76
2023/11/24 08:28:04;;;;;;;21.95;13.43;;;;;;;;;;4956462;28;20043;-78
2023/11/24 08:30:32;;;;;;;7.30;6.63;;;;;;;;;;4946806;28;20050;-77
2023/11/24 08:32:58;;;;;;;10.57;7.75;;;;;;;;;;4966506;28;20050;-76
2023/11/24 08:35:25;;;;;;;15.55;12.43;;;;;;;;;;4954716;28;20051;-77
2023/11/24 08:37:51;;;;;;;15.68;11.43;;;;;;;;;;4975123;28;20043;-78
2023/11/24 08:40:17;;;;;;;19.67;13.98;;;;;;;;;;4975360;28;20513;-78
2023/11/24 08:42:45;;;;;;;20.75;15.52;;;;;;;;;;4957003;28;20035;-78
2023/11/24 08:45:14;;;;;;;23.05;15.98;;;;;;;;;;4958236;28;20046;-78
2023/11/24 08:47:41;;;;;;;14.50;10.95;;;;;;;;;;4959507;28;20134;-77
2023/11/24 08:50:08;;;;;;;17.40;13.27;;;;;;;;;;4969619;28;20046;-78
2023/11/24 08:52:35;;;;;;;12.45;9.25;;;;;;;;;;4958519;28;20039;-78
2023/11/24 08:55:02;;;;;;;16.05;12.13;;;;;;;;;;4971227;28;20046;-77
2023/11/24 08:57:28;;;;;;;17.90;11.23;;;;;;;;;;4970782;28;20050;-78
2023/11/24 08:59:55;;;;;;;13.60;9.13;;;;;;;;;;4973279;28;20118;-80
2023/11/24 09:02:22;;;;;;;18.40;13.05;;;;;;;;;;4946514;28;20055;-77
2023/11/24 09:04:49;;;;;;;17.30;13.20;;;;;;;;;;4962886;28;20074;-81
2023/11/24 09:07:15;;;;;;;13.40;10.05;;;;;;;;;;4970460;28;20039;-81
2023/11/24 09:09:41;;;;;;;18.88;12.40;;;;;;;;;;4975427;28;20129;-79
2023/11/24 09:12:07;;;;;;;20.55;14.25;;;;;;;;;;4985291;28;20053;-77
2023/11/24 09:14:38;;;;;;;12.63;11.05;;;;;;;;;;4991037;28;20130;-79
2023/11/24 09:17:04;;;;;;;11.57;9.05;;;;;;;;;;4982714;28;20054;-80
2023/11/24 09:19:31;;;;;;;15.57;10.70;;;;;;;;;;4978800;28;20043;-80
2023/11/24 09:22:00;;;;;;;12.75;8.00;;;;;;;;;;4978257;28;20047;-78
2023/11/24 09:24:26;;;;;;;7.82;7.13;;;;;;;;;;4969221;28;20062;-81
2023/11/24 09:26:55;;;;;;;19.13;16.05;;;;;;;;;;4963783;28;20131;-81
2023/11/24 09:29:21;;;;;;;16.20;12.27;;;;;;;;;;4962703;28;20039;-78
2023/11/24 09:31:48;;;;;;;20.52;17.48;;;;;;;;;;4958364;28;20042;-79
2023/11/24 09:34:14;;;;;;;20.40;13.10;;;;;;;;;;4956789;28;20042;-77
2023/11/24 09:36:42;;;;;;;14.35;11.75;;;;;;;;;;4971061;28;20461;-76
2023/11/24 09:39:09;;;;;;;23.35;10.80;;;;;;;;;;4974437;28;20161;-78
2023/11/24 09:41:38;;;;;;;8.85;7.95;;;;;;;;;;4969309;28;20496;-79
2023/11/24 09:44:04;;;;;;;14.07;11.02;;;;;;;;;;4984832;28;20054;-77
2023/11/24 09:46:30;;;;;;;11.02;7.55;;;;;;;;;;4970248;28;20047;-77
2023/11/24 09:48:56;;;;;;;17.15;9.68;;;;;;;;;;4941491;28;20046;-75
2023/11/24 09:51:23;;;;;;;10.48;8.50;;;;;;;;;;4974389;28;20527;-79
2023/11/24 09:53:50;;;;;;;7.53;6.80;;;;;;;;;;4984877;28;20042;-78
2023/11/24 09:56:17;;;;;;;18.55;13.95;;;;;;;;;;4941449;28;20196;-78
2023/11/24 09:58:43;;;;;;;10.15;8.35;;;;;;;;;;4956321;28;20517;-77
2023/11/24 10:01:13;;;;;;;12.32;9.77;;;;;;;;;;4954567;28;20046;-78
2023/11/24 10:03:39;;;;;;;11.20;7.10;;;;;;;;;;4949043;28;20034;-74
2023/11/24 10:06:11;;;;;;;19.88;10.80;;;;;;;;;;4948838;28;20576;-75
2023/11/24 10:08:37;;;;;;;21.00;13.80;;;;;;;;;;4963232;28;20054;-76
2023/11/24 10:11:12;;;;;;;11.20;7.32;;;;;;;;;;4951538;28;20034;-75
2023/11/24 10:13:39;;;;;;;9.13;8.23;;;;;;;;;;4954621;28;20054;-78
2023/11/24 10:16:06;;;;;;;18.75;14.20;;;;;;;;;;4947656;28;20046;-78
2023/11/24 10:18:32;;;;;;;11.60;9.40;;;;;;;;;;4957016;28;20074;-78
2023/11/24 10:20:59;;;;;;;14.68;11.15;;;;;;;;;;4974045;28;20102;-79
2023/11/24 10:23:32;;;;;;;13.90;10.73;;;;;;;;;;4956808;28;20069;-78
2023/11/24 10:25:59;;;;;;;11.95;10.30;;;;;;;;;;4971637;28;20050;-75
2023/11/24 10:28:25;;;;;;;13.07;9.85;;;;;;;;;;4971571;28;20034;-76
2023/11/24 10:30:54;;;;;;;17.48;13.10;;;;;;;;;;4970132;28;20547;-77
2023/11/24 10:33:21;;;;;;;11.27;7.13;;;;;;;;;;4954335;28;20867;-76
2023/11/24 10:35:47;;;;;;;9.32;7.28;;;;;;;;;;4954681;28;20059;-77
2023/11/24 10:38:14;;;;;;;15.48;10.18;;;;;;;;;;4971875;28;20034;-78
2023/11/24 10:40:40;;;;;;;20.65;15.55;;;;;;;;;;4954864;28;20055;-77
2023/11/24 10:43:07;;;;;;;12.93;8.00;;;;;;;;;;4971665;28;20052;-79
2023/11/24 10:45:32;;;;;;;12.45;10.20;;;;;;;;;;4972200;28;20097;-75
2023/11/24 10:47:59;;;;;;;14.10;11.65;;;;;;;;;;4970892;28;20533;-74
2023/11/24 10:50:27;;;;;;;15.85;12.30;;;;;;;;;;4971219;28;20046;-75
2023/11/24 10:52:58;;;;;;;14.02;10.07;;;;;;;;;;4975928;28;20085;-74
2023/11/24 10:55:24;;;;;;;;;;;;;;;;;;4971568;28;20058;-74
2023/11/24 10:57:50;;;;;;;9.57;8.25;;;;;;;;;;4970950;28;20463;-74
2023/11/24 11:00:20;;;;;;;4.82;4.47;;;;;;;;;;4972080;28;20046;-74
2023/11/24 11:02:47;;;;;;;9.55;8.55;;;;;;;;;;4970123;28;20065;-73
2023/11/24 11:05:17;;;;;;;8.70;7.90;;;;;;;;;;4970241;28;20701;-75
2023/11/24 11:07:53;;;;;;;15.07;12.93;;;;;;;;;;4956686;28;20049;-75
2023/11/24 11:10:25;;;;;;;12.63;8.98;;;;;;;;;;4958757;28;20132;-76
2023/11/24 11:12:53;;;;;;;11.07;8.35;;;;;;;;;;4953959;28;20058;-74
2023/11/24 11:15:24;;;;;;;12.50;8.57;;;;;;;;;;4953926;28;20054;-75
2023/11/24 11:18:09;;;;;;;12.23;9.70;;;;;;;;;;4953489;28;20055;-74
2023/11/24 11:20:40;;;;;;;12.90;9.35;;;;;;;;;;4971600;28;20525;-73
2023/11/24 11:23:09;;;;;;;20.15;17.60;;;;;;;;;;4985353;28;20415;-75
2023/11/24 11:25:35;;;;;;;16.70;13.52;;;;;;;;;;4941422;28;20070;-76
2023/11/24 11:28:17;;;;;;;13.68;10.57;;;;;;;;;;4957196;28;20094;-75
2023/11/24 11:30:44;;;;;;;;;;;;;;;;;;4975704;28;20047;-75
2023/11/24 11:33:10;;;;;;;10.88;8.23;;;;;;;;;;4956835;28;19918;-75
2023/11/24 11:35:37;;;;;;;11.48;9.05;;;;;;;;;;4987557;28;20049;-74
2023/11/24 11:38:03;;;;;;;16.58;12.15;;;;;;;;;;4973181;28;20137;-74
2023/11/24 11:40:33;;;;;;;18.15;13.35;;;;;;;;;;4956743;28;20103;-74
2023/11/24 11:43:05;;;;;;;27.85;16.25;;;;;;;;;;4972713;28;20101;-75
2023/11/24 11:45:32;;;;;;;28.77;20.00;;;;;;;;;;4955084;28;20081;-76
2023/11/24 11:48:02;;;;;;;18.10;14.68;;;;;;;;;;4950603;28;20049;-75
2023/11/24 11:50:28;;;;;;;12.98;8.65;;;;;;;;;;4972457;28;20039;-77
2023/11/24 11:53:00;;;;;;;14.27;9.32;;;;;;;;;;4939165;28;20097;-74
2023/11/24 11:55:28;;;;;;;;;;;;;;;;;;4987422;28;20073;-74
2023/11/24 11:58:00;;;;;;;14.70;9.88;;;;;;;;;;4971231;28;19977;-75
2023/11/24 12:00:26;;;;;;;11.60;9.73;;;;;;;;;;4972274;28;20588;-74
2023/11/24 12:02:54;;;;;;;26.27;16.50;;;;;;;;;;4972409;28;20390;-74
2023/11/24 12:05:21;;;;;;;26.88;14.68;;;;;;;;;;4974271;28;20070;-78
2023/11/24 12:07:54;;;;;;;15.25;10.02;;;;;;;;;;4962740;28;20306;-79
2023/11/24 12:10:28;;;;;;;26.75;13.30;;;;;;;;;;4976268;28;20054;-79
2023/11/24 12:12:55;;;;;;;20.63;16.38;;;;;;;;;;4959630;28;20042;-78
2023/11/24 12:15:23;;;;;;;21.60;15.38;;;;;;;;;;4962467;28;20054;-78
2023/11/24 12:17:52;;;;;;;21.58;14.07;;;;;;;;;;4977333;28;20160;-80
2023/11/24 12:20:19;;;;;;;20.35;15.75;;;;;;;;;;4990277;28;20070;-80
2023/11/24 12:22:45;;;;;;;17.15;13.50;;;;;;;;;;4989991;28;20062;-83
2023/11/24 12:25:12;;;;;;;17.67;14.73;;;;;;;;;;5011314;28;20039;-82
2023/11/24 12:27:45;;;;;;;20.08;16.25;;;;;;;;;;4990105;28;20054;-80
2023/11/24 12:30:12;;;;;;;18.92;13.93;;;;;;;;;;4992031;28;20043;-80
2023/11/24 12:32:42;;;;;;;19.73;11.43;;;;;;;;;;4993955;28;20034;-81
2023/11/24 12:35:09;;;;;;;9.65;8.15;;;;;;;;;;4963765;28;20108;-83
2023/11/24 12:37:44;;;;;;;20.25;11.40;;;;;;;;;;4992105;28;20525;-82
2023/11/24 12:40:13;;;;;;;15.50;10.98;;;;;;;;;;4987212;28;20042;-81
2023/11/24 12:42:40;;;;;;;18.15;12.40;;;;;;;;;;4989443;28;20125;-79
2023/11/24 12:45:08;;;;;;;27.10;17.40;;;;;;;;;;4980054;28;20188;-81
2023/11/24 12:47:34;;;;;;;21.58;12.38;;;;;;;;;;4986066;28;20045;-80
2023/11/24 12:50:00;;;;;;;20.27;14.50;;;;;;;;;;4966957;28;20054;-80
2023/11/24 12:52:27;;;;;;;16.15;13.05;;;;;;;;;;4968019;28;20425;-80
2023/11/24 12:54:55;;;;;;;15.73;7.78;;;;;;;;;;4983983;28;20420;-81
2023/11/24 12:57:22;;;;;;;23.42;12.88;;;;;;;;;;4980038;28;20491;-79
2023/11/24 12:59:48;;;;;;;18.75;12.45;;;;;;;;;;4959568;28;20034;-79
2023/11/24 13:02:15;;;;;;;29.77;16.75;;;;;;;;;;4974557;28;20073;-79
2023/11/24 13:04:41;;;;;;;25.92;16.75;;;;;;;;;;4976962;28;20046;-79
2023/11/24 13:07:08;;;;;;;28.02;19.35;;;;;;;;;;4963884;28;20034;-78
2023/11/24 13:09:34;;;;;;;21.88;16.50;;;;;;;;;;4960253;28;20057;-79
2023/11/24 13:12:01;;;;;;;27.15;18.23;;;;;;;;;;4958510;28;20278;-79
2023/11/24 13:14:26;;;;;;;30.45;19.70;;;;;;;;;;4962888;28;20123;-80
2023/11/24 13:16:53;;;;;;;31.60;19.98;;;;;;;;;;4979104;28;20543;-80
2023/11/24 13:19:19;;;;;;;54.88;24.23;;;;;;;;;;4978641;28;20106;-77
2023/11/24 13:21:46;;;;;;;35.30;20.50;;;;;;;;;;4977159;28;20396;-78
2023/11/24 13:24:12;;;;;;;32.88;20.40;;;;;;;;;;4977361;28;20046;-79
2023/11/24 13:26:38;;;;;;;35.13;20.60;;;;;;;;;;4959737;28;20046;-79
2023/11/24 13:29:04;;;;;;;38.95;25.58;;;;;;;;;;4965920;28;20545;-80
2023/11/24 13:31:31;;;;;;;27.98;18.88;;;;;;;;;;4977357;28;20125;-80
2023/11/24 13:33:57;;;;;;;32.78;22.45;;;;;;;;;;4976189;28;20059;-78
2023/11/24 13:36:22;;;;;;;27.48;18.85;;;;;;;;;;4976352;28;20116;-79
2023/11/24 13:38:49;;;;;;;28.75;20.60;;;;;;;;;;4947563;28;20044;-79
2023/11/24 13:41:16;;;;;;;18.80;13.18;;;;;;;;;;4976276;28;20057;-79
2023/11/24 13:43:42;;;;;;;26.60;16.88;;;;;;;;;;4955904;28;20039;-79
2023/11/24 13:46:08;;;;;;;29.42;19.30;;;;;;;;;;4979833;28;20051;-80
2023/11/24 13:48:34;;;;;;;27.58;17.20;;;;;;;;;;4978501;28;20539;-79
2023/11/24 13:51:03;;;;;;;27.38;18.23;;;;;;;;;;4976158;28;20061;-80
2023/11/24 13:53:31;;;;;;;36.70;23.25;;;;;;;;;;4974662;28;20050;-79
2023/11/24 13:55:57;;;;;;;31.20;20.83;;;;;;;;;;4975965;28;20113;-79
2023/11/24 13:58:23;;;;;;;30.40;18.48;;;;;;;;;;4974918;28;20039;-79
2023/11/24 14:00:51;;;;;;;24.80;13.52;;;;;;;;;;4975435;28;20039;-79
2023/11/24 14:03:17;;;;;;;27.27;19.20;;;;;;;;;;4975072;28;20405;-78
2023/11/24 14:05:43;;;;;;;26.38;15.10;;;;;;;;;;4977321;28;20047;-80
2023/11/24 14:08:10;;;;;;;16.92;12.60;;;;;;;;;;4961019;28;20050;-81
2023/11/24 14:10:36;;;;;;;19.83;15.38;;;;;;;;;;4979587;28;20038;-81
2023/11/24 14:13:04;;;;;;;30.95;19.60;;;;;;;;;;4994503;28;20219;-78
2023/11/24 14:15:32;;;;;;;23.77;16.50;;;;;;;;;;4978627;28;20405;-79
2023/11/24 14:17:58;;;;;;;32.85;26.15;;;;;;;;;;4956347;28;20043;-78
2023/11/24 14:20:25;;;;;;;30.50;20.27;;;;;;;;;;4969407;28;20047;-79
2023/11/24 14:22:52;;;;;;;33.00;23.08;;;;;;;;;;4972715;28;20043;-79
2023/11/24 14:25:19;;;;;;;28.08;16.48;;;;;;;;;;4972469;28;20050;-79
2023/11/24 14:27:45;;;;;;;22.27;14.23;;;;;;;;;;4963200;28;20038;-80